aviador You're here:

SCCF Decoded Metar

CALAMA in CHILE
Report Time2018-02-20 03:00:00
UTC Time2018-02-20 03:50:12
Flight Rules vfr VFR
Wind250° at 04 kt
W.Decomp.*RWY 28: 3.6 kt HW 1.8 kt LCW
W.Rank250° ranks 6
Current wind is below 250° avg. (14.4)
Visibility9999 m
Phenomena:N/A
Clouds:N/A
Expected CloudBase > 2,000 ft AGL from Temp-Dew spread
CeilingNone
Temp12°C (ISA +12)
Dew Point07°C (72% RH)
AAT9.9°C
QNH1026 hPa
Density Alt8,707 ft
Elevation7,585 ft
Report Wrong Elevation
Raw Report
SCCF 200300Z 25004KT CAVOK 12/07 Q1026=

Extra information for SCCF:More info

Metar Taf Metar & Taf Last 4 Metars F.Rules Stats Wind Profile Meteogram Temp Stats Airport Information Weather charts Add Link Nearby VenuesMetar ALERT Operation Metar Decoded Social comments